Time;durP1;ratioP1;P1;durP2;ratioP2;P2;SDS_P1;SDS_P2;PMS_P1;PMS_P2;Temp;Humidity;BMP_temperature;BMP_pressure;BME280_temperature;BME280_humidity;BME280_pressure;Samples;Min_cycle;Max_cycle;Signal;HPM_P1;HPM_P2
2023/01/20 00:02:08;;;;;;;2.15;2.05;;;;;;;;;;4958214;28;20099;-88
2023/01/20 00:04:34;;;;;;;1.60;1.50;;;;;;;;;;4958477;28;20513;-87
2023/01/20 00:07:01;;;;;;;1.55;1.45;;;;;;;;;;4958100;28;20114;-89
2023/01/20 00:09:27;;;;;;;1.42;1.42;;;;;;;;;;4957414;28;20051;-90
2023/01/20 00:11:55;;;;;;;1.67;1.58;;;;;;;;;;4955850;28;20043;-88
2023/01/20 00:14:24;;;;;;;1.85;1.75;;;;;;;;;;4957538;28;20102;-89
2023/01/20 00:16:50;;;;;;;2.35;2.25;;;;;;;;;;4957973;28;20130;-89
2023/01/20 00:19:17;;;;;;;1.83;1.73;;;;;;;;;;4958033;28;20060;-89
2023/01/20 00:21:43;;;;;;;1.60;1.50;;;;;;;;;;4956611;28;20098;-88
2023/01/20 00:24:10;;;;;;;0.98;0.98;;;;;;;;;;4957353;28;20098;-87
2023/01/20 00:26:36;;;;;;;1.25;1.25;;;;;;;;;;4957032;28;20055;-87
2023/01/20 00:29:04;;;;;;;1.52;1.42;;;;;;;;;;4954558;28;20051;-87
2023/01/20 00:31:31;;;;;;;1.55;1.48;;;;;;;;;;4957271;28;20043;-88
2023/01/20 00:33:59;;;;;;;2.95;2.85;;;;;;;;;;4957684;28;20058;-86
2023/01/20 00:36:26;;;;;;;5.90;2.72;;;;;;;;;;4957350;28;20562;-87
2023/01/20 00:38:53;;;;;;;2.53;2.42;;;;;;;;;;4957573;28;20468;-87
2023/01/20 00:41:20;;;;;;;1.65;1.55;;;;;;;;;;4957300;28;20098;-87
2023/01/20 00:43:46;;;;;;;1.20;1.20;;;;;;;;;;4956908;28;20052;-88
2023/01/20 00:46:14;;;;;;;2.13;2.03;;;;;;;;;;4954359;28;20047;-87
2023/01/20 00:48:41;;;;;;;1.45;1.38;;;;;;;;;;4957280;28;20122;-87
2023/01/20 00:51:08;;;;;;;1.73;1.63;;;;;;;;;;4957254;28;20472;-88
2023/01/20 00:53:35;;;;;;;1.92;1.83;;;;;;;;;;4957456;28;20102;-87
2023/01/20 00:56:01;;;;;;;2.22;2.13;;;;;;;;;;4957130;28;20051;-87
2023/01/20 00:58:28;;;;;;;2.30;2.20;;;;;;;;;;4957115;28;20106;-87
2023/01/20 01:00:56;;;;;;;2.30;2.20;;;;;;;;;;4955467;28;20051;-88
2023/01/20 01:03:24;;;;;;;1.98;1.88;;;;;;;;;;4955409;29;20150;-86
2023/01/20 01:05:50;;;;;;;1.75;1.65;;;;;;;;;;4956654;28;20051;-88
2023/01/20 01:08:17;;;;;;;1.15;1.15;;;;;;;;;;4957020;28;20051;-87
2023/01/20 01:10:43;;;;;;;4.68;2.25;;;;;;;;;;4956681;28;20059;-88
2023/01/20 01:13:10;;;;;;;2.40;2.30;;;;;;;;;;4956934;28;20110;-88
2023/01/20 01:15:36;;;;;;;2.08;1.98;;;;;;;;;;4956841;28;20110;-87
2023/01/20 01:18:03;;;;;;;1.13;1.13;;;;;;;;;;4953705;28;20386;-87
2023/01/20 01:20:31;;;;;;;1.35;1.35;;;;;;;;;;4956340;28;20102;-88
2023/01/20 01:22:57;;;;;;;0.85;0.85;;;;;;;;;;4956201;28;20390;-87
2023/01/20 01:25:24;;;;;;;1.00;1.00;;;;;;;;;;4956769;28;20110;-89
2023/01/20 01:27:50;;;;;;;2.10;2.00;;;;;;;;;;4955932;28;20500;-88
2023/01/20 01:30:17;;;;;;;1.27;1.23;;;;;;;;;;4956633;28;20051;-88
2023/01/20 01:32:43;;;;;;;1.15;1.15;;;;;;;;;;4955663;28;20102;-89
2023/01/20 01:35:10;;;;;;;0.93;0.93;;;;;;;;;;4953834;28;20440;-88
2023/01/20 01:37:38;;;;;;;1.25;1.25;;;;;;;;;;4956310;28;20186;-88
2023/01/20 01:40:05;;;;;;;2.13;2.03;;;;;;;;;;4956273;28;20080;-88
2023/01/20 01:42:31;;;;;;;1.55;1.45;;;;;;;;;;4955378;28;20074;-89
2023/01/20 01:45:17;;;;;;;10.88;1.58;;;;;;;;;;4956726;28;20049;-89
2023/01/20 01:47:46;;;;;;;1.67;1.58;;;;;;;;;;4956269;28;20198;-89
2023/01/20 01:50:14;;;;;;;2.17;2.08;;;;;;;;;;4953696;28;20110;-88
2023/01/20 01:52:44;;;;;;;1.02;1.02;;;;;;;;;;4956054;28;20114;-88
2023/01/20 01:55:11;;;;;;;1.65;1.55;;;;;;;;;;4956025;28;20055;-89
2023/01/20 01:57:37;;;;;;;1.60;1.50;;;;;;;;;;4956594;28;20106;-90
2023/01/20 02:00:05;;;;;;;2.08;1.98;;;;;;;;;;4956211;28;20055;-89
2023/01/20 02:02:32;;;;;;;1.67;1.58;;;;;;;;;;4956348;28;20138;-90
2023/01/20 02:04:58;;;;;;;1.58;1.48;;;;;;;;;;4956071;28;20059;-89
2023/01/20 02:07:25;;;;;;;1.35;1.35;;;;;;;;;;4954016;28;20051;-89
2023/01/20 02:09:53;;;;;;;1.75;1.65;;;;;;;;;;4955710;28;20062;-90
2023/01/20 02:12:21;;;;;;;1.17;1.17;;;;;;;;;;4955819;28;20473;-89
2023/01/20 02:14:49;;;;;;;1.38;1.38;;;;;;;;;;4956380;28;20055;-90
2023/01/20 02:17:20;;;;;;;1.77;1.67;;;;;;;;;;4955977;28;20053;-89
2023/01/20 02:20:02;;;;;;;2.20;2.10;;;;;;;;;;4955949;28;20099;-89
2023/01/20 02:22:33;;;;;;;1.15;1.15;;;;;;;;;;4953404;28;20043;-89
2023/01/20 02:25:26;;;;;;;1.25;1.25;;;;;;;;;;4955654;28;20055;-89
2023/01/20 02:28:07;;;;;;;2.10;2.00;;;;;;;;;;4915137;29;20095;-88
2023/01/20 02:30:41;;;;;;;1.40;1.40;;;;;;;;;;4915807;29;20048;-89
2023/01/20 02:33:11;;;;;;;1.75;1.65;;;;;;;;;;4915399;29;20044;-88
2023/01/20 02:35:40;;;;;;;1.65;1.55;;;;;;;;;;4915749;29;20502;-89
2023/01/20 02:38:13;;;;;;;1.63;1.52;;;;;;;;;;4912988;29;20115;-90
2023/01/20 02:40:43;;;;;;;1.73;1.63;;;;;;;;;;4915548;29;20052;-88
2023/01/20 02:43:11;;;;;;;1.67;1.58;;;;;;;;;;4915032;29;20451;-88
2023/01/20 02:45:42;;;;;;;2.40;2.28;;;;;;;;;;4918772;29;20056;-88
2023/01/20 02:48:09;;;;;;;;;;;;;;;;;;4919550;29;20055;-89
2023/01/20 02:50:40;;;;;;;1.90;1.80;;;;;;;;;;4919057;29;19923;-89
2023/01/20 02:53:07;;;;;;;2.05;1.95;;;;;;;;;;4919140;29;20048;-88
2023/01/20 02:55:36;;;;;;;2.03;1.92;;;;;;;;;;4916685;29;20059;-89
2023/01/20 02:58:04;;;;;;;2.97;2.88;;;;;;;;;;4918775;29;20087;-89
2023/01/20 03:00:33;;;;;;;1.75;1.70;;;;;;;;;;4918394;29;20099;-89
2023/01/20 03:03:01;;;;;;;1.40;1.38;;;;;;;;;;4927437;29;20098;-89
2023/01/20 03:05:30;;;;;;;2.05;1.95;;;;;;;;;;4958851;28;20099;-89
2023/01/20 03:07:58;;;;;;;2.30;2.20;;;;;;;;;;4958777;28;20446;-89
2023/01/20 03:10:26;;;;;;;1.50;1.50;;;;;;;;;;4959277;28;20465;-90
2023/01/20 03:12:55;;;;;;;1.95;1.85;;;;;;;;;;4956485;28;20089;-89
2023/01/20 03:15:24;;;;;;;1.38;1.38;;;;;;;;;;4958593;28;20497;-89
2023/01/20 03:17:50;;;;;;;1.23;1.23;;;;;;;;;;4958679;28;20079;-87
2023/01/20 03:20:17;;;;;;;1.42;1.35;;;;;;;;;;4958607;28;20055;-89
2023/01/20 03:22:43;;;;;;;1.33;1.30;;;;;;;;;;4958547;28;20641;-87
2023/01/20 03:25:13;;;;;;;1.60;1.50;;;;;;;;;;4958898;28;20048;-89
2023/01/20 03:27:40;;;;;;;1.80;1.70;;;;;;;;;;4957086;28;20114;-91
2023/01/20 03:30:11;;;;;;;1.52;1.50;;;;;;;;;;4958122;28;20055;-89
2023/01/20 03:32:38;;;;;;;;;;;;;;;;;;4958818;28;20051;-89
2023/01/20 03:35:04;;;;;;;1.77;1.67;;;;;;;;;;4958369;28;19926;-90
2023/01/20 03:37:31;;;;;;;1.75;1.73;;;;;;;;;;4958169;28;20079;-90
2023/01/20 03:39:58;;;;;;;0.85;0.85;;;;;;;;;;4959142;28;20192;-91
2023/01/20 03:42:29;;;;;;;1.27;1.17;;;;;;;;;;4958604;28;20185;-87
2023/01/20 03:45:01;;;;;;;1.08;1.08;;;;;;;;;;4956358;28;20122;-89
2023/01/20 03:47:36;;;;;;;1.27;1.27;;;;;;;;;;4958803;29;20409;-89
2023/01/20 03:50:07;;;;;;;1.50;1.48;;;;;;;;;;4958201;29;20114;-89
2023/01/20 03:52:33;;;;;;;;;;;;;;;;;;4958384;29;20440;-88
2023/01/20 03:55:03;;;;;;;1.27;1.17;;;;;;;;;;4956508;28;19922;-89
2023/01/20 03:57:34;;;;;;;1.08;1.08;;;;;;;;;;4958743;29;20055;-87
2023/01/20 04:00:01;;;;;;;1.60;1.50;;;;;;;;;;4959231;29;20055;-87
2023/01/20 04:02:28;;;;;;;1.75;1.65;;;;;;;;;;4956252;28;20054;-86
2023/01/20 04:04:55;;;;;;;1.63;1.58;;;;;;;;;;4958508;28;20136;-87
2023/01/20 04:07:25;;;;;;;1.65;1.58;;;;;;;;;;4958253;28;20568;-87
2023/01/20 04:09:52;;;;;;;0.75;0.75;;;;;;;;;;4957679;28;20051;-88
2023/01/20 04:12:19;;;;;;;1.70;1.60;;;;;;;;;;4958250;28;20047;-87
2023/01/20 04:14:47;;;;;;;1.30;1.30;;;;;;;;;;4958017;28;20119;-87
2023/01/20 04:17:13;;;;;;;1.95;1.85;;;;;;;;;;4955964;28;20039;-89
2023/01/20 04:19:40;;;;;;;1.58;1.50;;;;;;;;;;4957333;29;20123;-87
2023/01/20 04:22:09;;;;;;;1.08;1.08;;;;;;;;;;4957687;28;20051;-87
2023/01/20 04:24:38;;;;;;;1.67;1.58;;;;;;;;;;4957616;28;20119;-87
2023/01/20 04:27:04;;;;;;;1.20;1.20;;;;;;;;;;4957355;28;20054;-87
2023/01/20 04:29:31;;;;;;;1.73;1.63;;;;;;;;;;4956832;28;20117;-88
2023/01/20 04:32:02;;;;;;;1.50;1.40;;;;;;;;;;4957393;28;20050;-88
2023/01/20 04:34:28;;;;;;;1.80;1.58;;;;;;;;;;4957841;28;20051;-88
2023/01/20 04:36:55;;;;;;;1.92;1.83;;;;;;;;;;4955118;28;20055;-88
2023/01/20 04:39:21;;;;;;;1.85;1.75;;;;;;;;;;4956862;28;20098;-87
2023/01/20 04:41:48;;;;;;;1.92;1.83;;;;;;;;;;4956416;28;20051;-88
2023/01/20 04:44:14;;;;;;;1.73;1.63;;;;;;;;;;4956647;28;20146;-87
2023/01/20 04:46:41;;;;;;;2.35;2.15;;;;;;;;;;4956631;28;20102;-88
2023/01/20 04:49:10;;;;;;;1.80;1.70;;;;;;;;;;4956318;28;20069;-88
2023/01/20 04:51:36;;;;;;;1.55;1.45;;;;;;;;;;4956785;28;20087;-89
2023/01/20 04:54:03;;;;;;;1.20;1.20;;;;;;;;;;4955089;28;20401;-90
2023/01/20 04:56:29;;;;;;;0.95;0.95;;;;;;;;;;4956630;28;20047;-89
2023/01/20 04:58:56;;;;;;;1.98;1.85;;;;;;;;;;4956746;28;20509;-89
2023/01/20 05:01:22;;;;;;;3.05;2.80;;;;;;;;;;4956489;28;20051;-89
2023/01/20 05:03:49;;;;;;;1.90;1.80;;;;;;;;;;4956272;28;20109;-90
2023/01/20 05:06:17;;;;;;;1.20;1.20;;;;;;;;;;4956893;28;20044;-89
2023/01/20 05:08:44;;;;;;;0.93;0.93;;;;;;;;;;4956790;28;20086;-89
2023/01/20 05:11:10;;;;;;;1.85;1.75;;;;;;;;;;4955111;28;20098;-89
2023/01/20 05:13:38;;;;;;;0.85;0.85;;;;;;;;;;4955462;29;20051;-89
2023/01/20 05:16:05;;;;;;;1.15;1.15;;;;;;;;;;4956278;28;20043;-88
2023/01/20 05:18:32;;;;;;;1.98;1.88;;;;;;;;;;4956306;28;20398;-87
2023/01/20 05:20:59;;;;;;;1.05;1.05;;;;;;;;;;4956544;28;20079;-88
2023/01/20 05:23:27;;;;;;;1.85;1.75;;;;;;;;;;4956438;28;20055;-88
2023/01/20 05:25:53;;;;;;;1.83;1.73;;;;;;;;;;4956315;28;20489;-88
2023/01/20 05:28:20;;;;;;;1.90;1.80;;;;;;;;;;4953751;28;20063;-89
2023/01/20 05:30:47;;;;;;;2.00;1.90;;;;;;;;;;4955746;29;20504;-88
2023/01/20 05:33:13;;;;;;;1.88;1.77;;;;;;;;;;4956139;28;20058;-88
2023/01/20 05:35:40;;;;;;;1.45;1.40;;;;;;;;;;4956002;28;20051;-88
2023/01/20 05:38:06;;;;;;;2.58;2.45;;;;;;;;;;4956139;28;20051;-88
2023/01/20 05:40:34;;;;;;;1.45;1.38;;;;;;;;;;4956316;28;20051;-88
2023/01/20 05:43:01;;;;;;;1.42;1.33;;;;;;;;;;4956077;28;20102;-88
2023/01/20 05:45:27;;;;;;;2.03;1.92;;;;;;;;;;4955687;28;20043;-88
2023/01/20 05:47:55;;;;;;;2.42;2.22;;;;;;;;;;4953034;28;20489;-88
2023/01/20 05:50:21;;;;;;;1.52;1.40;;;;;;;;;;4955794;28;20441;-88
2023/01/20 05:52:48;;;;;;;2.13;1.63;;;;;;;;;;4955622;28;20051;-88
2023/01/20 05:55:14;;;;;;;1.65;1.55;;;;;;;;;;4955332;28;20493;-89
2023/01/20 05:57:42;;;;;;;3.75;2.20;;;;;;;;;;4956635;28;20047;-89
2023/01/20 06:00:09;;;;;;;2.45;2.30;;;;;;;;;;4955246;28;20489;-87
2023/01/20 06:02:36;;;;;;;1.45;1.42;;;;;;;;;;4955731;28;20055;-89
2023/01/20 06:05:02;;;;;;;1.60;1.52;;;;;;;;;;4953211;28;20485;-89
2023/01/20 06:07:29;;;;;;;3.85;3.63;;;;;;;;;;4955406;28;20055;-88
2023/01/20 06:09:56;;;;;;;3.47;3.28;;;;;;;;;;4955085;28;20110;-89
2023/01/20 06:12:22;;;;;;;3.15;2.95;;;;;;;;;;4955552;28;20055;-88
2023/01/20 06:14:51;;;;;;;1.90;1.80;;;;;;;;;;4954750;28;20460;-88
2023/01/20 06:17:17;;;;;;;1.08;1.08;;;;;;;;;;4955274;28;20501;-88
2023/01/20 06:19:44;;;;;;;2.05;1.88;;;;;;;;;;4955479;28;20102;-88
2023/01/20 06:22:12;;;;;;;4.57;2.45;;;;;;;;;;4952712;28;20050;-88
2023/01/20 06:24:39;;;;;;;2.58;2.42;;;;;;;;;;4955008;28;20107;-88
2023/01/20 06:27:06;;;;;;;2.50;2.40;;;;;;;;;;4955407;28;20049;-89
2023/01/20 06:29:32;;;;;;;2.10;2.00;;;;;;;;;;4955717;28;20047;-89
2023/01/20 06:32:00;;;;;;;2.50;2.40;;;;;;;;;;4955790;28;20047;-88
2023/01/20 06:34:27;;;;;;;1.83;1.73;;;;;;;;;;4956016;28;20055;-88
2023/01/20 06:36:53;;;;;;;3.70;3.40;;;;;;;;;;4954242;28;20055;-89
2023/01/20 06:39:20;;;;;;;1.45;1.38;;;;;;;;;;4954837;28;20077;-88
2023/01/20 06:41:46;;;;;;;2.05;1.95;;;;;;;;;;4952780;28;20051;-88
2023/01/20 06:44:13;;;;;;;2.00;1.90;;;;;;;;;;4954862;28;20050;-87
2023/01/20 06:46:39;;;;;;;3.00;2.80;;;;;;;;;;4953652;28;20047;-87
2023/01/20 06:49:07;;;;;;;1.52;1.42;;;;;;;;;;4955967;28;20051;-88
2023/01/20 06:51:34;;;;;;;2.08;1.98;;;;;;;;;;4955198;28;20059;-87
2023/01/20 06:54:00;;;;;;;3.08;2.88;;;;;;;;;;4956145;28;20106;-95
2023/01/20 06:56:27;;;;;;;2.20;2.00;;;;;;;;;;4960834;28;20059;-96
2023/01/20 06:58:54;;;;;;;2.38;2.28;;;;;;;;;;4962400;28;20118;-96
2023/01/20 07:01:22;;;;;;;2.58;2.45;;;;;;;;;;4956416;28;20119;-88
2023/01/20 07:03:48;;;;;;;2.47;1.52;;;;;;;;;;4954936;28;20067;-89
2023/01/20 07:06:18;;;;;;;3.75;3.45;;;;;;;;;;4952436;28;20043;-89
2023/01/20 07:08:45;;;;;;;2.58;2.38;;;;;;;;;;4952765;29;20109;-89
2023/01/20 07:11:11;;;;;;;2.53;2.33;;;;;;;;;;4955437;28;20496;-89
2023/01/20 07:13:38;;;;;;;2.97;2.67;;;;;;;;;;4953384;28;20120;-88
2023/01/20 07:16:04;;;;;;;3.05;2.85;;;;;;;;;;4953408;29;20113;-90
2023/01/20 07:18:31;;;;;;;3.28;3.08;;;;;;;;;;4954406;28;20055;-88
2023/01/20 07:20:57;;;;;;;3.45;3.25;;;;;;;;;;4955158;28;20058;-88
2023/01/20 07:23:25;;;;;;;1.88;1.70;;;;;;;;;;4955040;28;20481;-89
2023/01/20 07:25:57;;;;;;;2.55;2.35;;;;;;;;;;4952134;28;20047;-89
2023/01/20 07:28:23;;;;;;;2.08;1.98;;;;;;;;;;4949651;29;20055;-89
2023/01/20 07:30:50;;;;;;;1.52;1.42;;;;;;;;;;4951998;28;20044;-88
2023/01/20 07:33:16;;;;;;;2.50;1.77;;;;;;;;;;4952414;29;20524;-88
2023/01/20 07:35:43;;;;;;;2.17;1.98;;;;;;;;;;4957863;29;20050;-88
2023/01/20 07:38:09;;;;;;;2.03;1.92;;;;;;;;;;4957802;28;20106;-88
2023/01/20 07:40:37;;;;;;;2.88;2.67;;;;;;;;;;4957878;28;20047;-88
2023/01/20 07:43:03;;;;;;;3.00;2.60;;;;;;;;;;4957903;28;20102;-89
2023/01/20 07:45:30;;;;;;;3.28;2.75;;;;;;;;;;4957981;28;20098;-88
2023/01/20 07:47:56;;;;;;;3.03;2.60;;;;;;;;;;4958070;28;20448;-88
2023/01/20 07:50:23;;;;;;;4.40;4.10;;;;;;;;;;4958278;29;20055;-89
2023/01/20 07:52:49;;;;;;;4.18;3.78;;;;;;;;;;4957416;29;20404;-88
2023/01/20 07:55:16;;;;;;;3.50;3.17;;;;;;;;;;4957797;29;20112;-88
2023/01/20 07:57:44;;;;;;;2.97;2.78;;;;;;;;;;4958264;29;20047;-88
2023/01/20 08:00:11;;;;;;;3.10;2.80;;;;;;;;;;4957969;29;20051;-89
2023/01/20 08:02:38;;;;;;;2.88;2.72;;;;;;;;;;4958173;29;20134;-89
2023/01/20 08:05:04;;;;;;;2.00;1.90;;;;;;;;;;4957503;28;20149;-89
2023/01/20 08:07:31;;;;;;;4.43;2.90;;;;;;;;;;4957401;28;20106;-88
2023/01/20 08:09:58;;;;;;;1.83;1.73;;;;;;;;;;4957619;28;20069;-88
2023/01/20 08:12:24;;;;;;;3.45;3.25;;;;;;;;;;4957554;28;20102;-88
2023/01/20 08:14:52;;;;;;;2.80;2.65;;;;;;;;;;4957615;28;20457;-88
2023/01/20 08:17:19;;;;;;;2.33;2.17;;;;;;;;;;4946557;28;20055;-88
2023/01/20 08:19:45;;;;;;;3.10;2.78;;;;;;;;;;4938920;29;20064;-89
2023/01/20 08:22:12;;;;;;;3.92;3.63;;;;;;;;;;4950900;29;20066;-88
2023/01/20 08:24:38;;;;;;;4.63;3.72;;;;;;;;;;4957237;28;20111;-88
2023/01/20 08:27:05;;;;;;;4.45;3.25;;;;;;;;;;4957272;28;20055;-89
2023/01/20 08:29:32;;;;;;;4.18;3.88;;;;;;;;;;4957800;28;20111;-88
2023/01/20 08:32:00;;;;;;;7.05;6.57;;;;;;;;;;4957922;28;20110;-88
2023/01/20 08:34:27;;;;;;;3.72;3.53;;;;;;;;;;4957267;28;20453;-87
2023/01/20 08:36:56;;;;;;;5.25;4.82;;;;;;;;;;4957500;28;20051;-88
2023/01/20 08:39:23;;;;;;;4.78;4.47;;;;;;;;;;4957179;28;20059;-87
2023/01/20 08:41:50;;;;;;;2.33;2.17;;;;;;;;;;4956617;28;20110;-87
2023/01/20 08:44:17;;;;;;;5.43;2.58;;;;;;;;;;4957135;28;20051;-88
2023/01/20 08:46:44;;;;;;;2.83;2.63;;;;;;;;;;4957186;28;20047;-87
2023/01/20 08:49:14;;;;;;;4.63;4.22;;;;;;;;;;4957234;28;20535;-87
2023/01/20 08:51:41;;;;;;;2.42;2.28;;;;;;;;;;4957195;28;20098;-89
2023/01/20 08:54:07;;;;;;;2.30;2.20;;;;;;;;;;4957140;28;20569;-87
2023/01/20 08:56:35;;;;;;;3.83;3.63;;;;;;;;;;4956610;28;20055;-86
2023/01/20 08:59:02;;;;;;;1.55;1.45;;;;;;;;;;4956474;28;20159;-89
2023/01/20 09:01:29;;;;;;;1.65;1.42;;;;;;;;;;4956756;28;20066;-88
2023/01/20 09:03:56;;;;;;;1.40;1.40;;;;;;;;;;4956901;28;20086;-87
2023/01/20 09:06:24;;;;;;;1.88;1.77;;;;;;;;;;4957421;28;20043;-87
2023/01/20 09:08:53;;;;;;;1.92;1.83;;;;;;;;;;4956914;28;20055;-87
2023/01/20 09:11:21;;;;;;;2.47;2.15;;;;;;;;;;4956556;28;20081;-88
2023/01/20 09:13:47;;;;;;;3.38;3.17;;;;;;;;;;4956360;28;20047;-88
2023/01/20 09:16:14;;;;;;;2.42;2.22;;;;;;;;;;4956810;28;20051;-87
2023/01/20 09:18:41;;;;;;;2.20;2.10;;;;;;;;;;4956384;28;20122;-88
2023/01/20 09:21:08;;;;;;;1.65;1.55;;;;;;;;;;4956175;28;20058;-87
2023/01/20 09:23:37;;;;;;;2.22;2.13;;;;;;;;;;4956530;28;20054;-86
2023/01/20 09:26:05;;;;;;;1.85;1.35;;;;;;;;;;4956563;28;20051;-86
2023/01/20 09:28:32;;;;;;;1.45;1.35;;;;;;;;;;4956061;28;20444;-87
2023/01/20 09:30:58;;;;;;;1.05;1.05;;;;;;;;;;4956548;28;20059;-86
2023/01/20 09:33:25;;;;;;;1.75;1.65;;;;;;;;;;4956519;28;20074;-87
2023/01/20 09:35:54;;;;;;;1.65;1.55;;;;;;;;;;4956079;28;20107;-87
2023/01/20 09:44:03;;;;;;;1.55;1.45;;;;;;;;;;4935727;29;20078;-88
2023/01/20 09:46:35;;;;;;;2.30;2.20;;;;;;;;;;4936436;29;20485;-88
2023/01/20 09:54:38;;;;;;;1.35;1.35;;;;;;;;;;4935932;29;20090;-88
2023/01/20 09:57:07;;;;;;;4.32;2.92;;;;;;;;;;4937169;29;20043;-88
2023/01/20 09:59:36;;;;;;;1.40;1.40;;;;;;;;;;4955494;29;20110;-88
2023/01/20 10:02:06;;;;;;;1.80;1.67;;;;;;;;;;4956377;28;20055;-89
2023/01/20 10:04:36;;;;;;;2.25;2.15;;;;;;;;;;4955690;28;20114;-90
2023/01/20 10:07:05;;;;;;;1.85;1.75;;;;;;;;;;4956092;28;20130;-89
2023/01/20 10:09:35;;;;;;;1.63;1.52;;;;;;;;;;4955689;28;20055;-90
2023/01/20 10:12:05;;;;;;;2.85;2.75;;;;;;;;;;4955570;28;20461;-89
2023/01/20 10:14:35;;;;;;;1.80;1.70;;;;;;;;;;4955008;28;20046;-90
2023/01/20 10:17:07;;;;;;;1.67;1.58;;;;;;;;;;4956044;28;20118;-92
2023/01/20 10:19:37;;;;;;;1.70;1.65;;;;;;;;;;4955937;28;20493;-91
2023/01/20 10:22:06;;;;;;;1.75;1.65;;;;;;;;;;4955911;28;20051;-88
2023/01/20 10:24:35;;;;;;;1.67;1.58;;;;;;;;;;4954557;28;20489;-86
2023/01/20 10:27:02;;;;;;;1.20;1.20;;;;;;;;;;4955088;28;20106;-87
2023/01/20 10:29:32;;;;;;;1.58;1.48;;;;;;;;;;4955455;28;20055;-87
2023/01/20 10:32:01;;;;;;;1.60;1.50;;;;;;;;;;4951259;28;20113;-87
2023/01/20 10:34:31;;;;;;;2.40;2.30;;;;;;;;;;4955406;28;20540;-89
2023/01/20 10:37:00;;;;;;;1.55;1.45;;;;;;;;;;4955742;28;20110;-87
2023/01/20 10:39:30;;;;;;;1.95;1.85;;;;;;;;;;4955714;28;20051;-87
2023/01/20 10:42:01;;;;;;;0.93;0.93;;;;;;;;;;4955901;28;20051;-88
2023/01/20 10:44:28;;;;;;;2.95;2.75;;;;;;;;;;4955689;28;20055;-88
2023/01/20 10:47:02;;;;;;;1.13;1.13;;;;;;;;;;4955944;28;20051;-89
2023/01/20 10:49:40;;;;;;;1.60;1.58;;;;;;;;;;4955367;28;20059;-88
2023/01/20 10:52:16;;;;;;;1.45;1.45;;;;;;;;;;4956197;28;20086;-88
2023/01/20 10:54:47;;;;;;;1.83;1.73;;;;;;;;;;4956028;28;20102;-87
2023/01/20 10:57:14;;;;;;;1.63;1.52;;;;;;;;;;4955819;28;20393;-89
2023/01/20 10:59:43;;;;;;;2.70;2.50;;;;;;;;;;4955466;28;20547;-90
2023/01/20 11:02:14;;;;;;;2.15;1.92;;;;;;;;;;4954131;28;20047;-88
2023/01/20 11:04:42;;;;;;;2.15;2.03;;;;;;;;;;4943285;28;20110;-88
2023/01/20 11:07:12;;;;;;;1.70;1.60;;;;;;;;;;4959131;28;20058;-87
2023/01/20 11:09:40;;;;;;;0.88;0.88;;;;;;;;;;4958618;28;20055;-89
2023/01/20 11:12:12;;;;;;;1.20;1.17;;;;;;;;;;4958303;28;20499;-89
2023/01/20 11:14:38;;;;;;;1.77;1.67;;;;;;;;;;4958443;28;20059;-88
2023/01/20 11:17:06;;;;;;;1.23;1.23;;;;;;;;;;4957989;28;20055;-90
2023/01/20 11:19:47;;;;;;;0.75;0.75;;;;;;;;;;4939137;29;20102;-88
2023/01/20 11:22:19;;;;;;;1.33;1.30;;;;;;;;;;4949149;29;20110;-88
2023/01/20 11:24:46;;;;;;;1.23;1.20;;;;;;;;;;4957387;28;20047;-89
2023/01/20 11:27:14;;;;;;;1.20;1.20;;;;;;;;;;4958156;28;20106;-88
2023/01/20 11:29:41;;;;;;;1.20;1.20;;;;;;;;;;4939354;29;20461;-89
2023/01/20 11:32:24;;;;;;;1.08;1.08;;;;;;;;;;4939237;29;20055;-88
2023/01/20 11:34:52;;;;;;;1.35;1.30;;;;;;;;;;4938905;29;20122;-89
2023/01/20 11:37:19;;;;;;;2.67;2.47;;;;;;;;;;4956697;29;20086;-88
2023/01/20 11:39:56;;;;;;;0.77;0.77;;;;;;;;;;4958155;28;20477;-89
2023/01/20 11:42:23;;;;;;;1.20;1.20;;;;;;;;;;4958445;28;20051;-88
2023/01/20 11:44:51;;;;;;;1.05;1.05;;;;;;;;;;4957493;28;20560;-89
2023/01/20 11:47:24;;;;;;;1.63;1.52;;;;;;;;;;4957682;28;20135;-86
2023/01/20 11:50:09;;;;;;;1.55;1.45;;;;;;;;;;4938658;29;20180;-88
2023/01/20 11:52:38;;;;;;;1.33;1.33;;;;;;;;;;4938510;29;20094;-86
2023/01/20 11:55:07;;;;;;;1.88;1.77;;;;;;;;;;4938800;29;20047;-88
2023/01/20 11:57:34;;;;;;;1.73;1.63;;;;;;;;;;4941264;29;20087;-87
2023/01/20 12:00:00;;;;;;;1.73;1.63;;;;;;;;;;4959914;28;20106;-89
2023/01/20 12:02:27;;;;;;;1.75;1.65;;;;;;;;;;4959681;28;20106;-88
2023/01/20 12:04:59;;;;;;;1.60;1.50;;;;;;;;;;4959378;28;20576;-88
2023/01/20 12:07:27;;;;;;;1.60;1.50;;;;;;;;;;4959533;28;20102;-89
2023/01/20 12:09:57;;;;;;;1.85;1.75;;;;;;;;;;4957935;28;20134;-87
2023/01/20 12:12:28;;;;;;;2.47;2.38;;;;;;;;;;4958261;28;20130;-88
2023/01/20 12:14:57;;;;;;;3.08;2.95;;;;;;;;;;4938930;29;20131;-87
2023/01/20 12:17:32;;;;;;;1.60;1.50;;;;;;;;;;4938363;29;20099;-87
2023/01/20 12:20:03;;;;;;;2.08;1.98;;;;;;;;;;4938159;29;20111;-87
2023/01/20 12:22:34;;;;;;;2.13;2.00;;;;;;;;;;4938556;29;20099;-89
2023/01/20 12:25:10;;;;;;;3.35;2.53;;;;;;;;;;4940730;29;20098;-88
2023/01/20 12:27:41;;;;;;;1.98;1.88;;;;;;;;;;4957175;28;20114;-88
2023/01/20 12:30:15;;;;;;;1.35;1.33;;;;;;;;;;4957618;28;20134;-87
2023/01/20 12:32:41;;;;;;;3.38;3.08;;;;;;;;;;4954917;28;20059;-87
2023/01/20 12:35:12;;;;;;;2.88;2.65;;;;;;;;;;4957529;28;20122;-87
2023/01/20 12:37:42;;;;;;;4.30;1.90;;;;;;;;;;4957004;28;20055;-86
2023/01/20 12:40:13;;;;;;;3.38;3.08;;;;;;;;;;4938113;29;20055;-87
2023/01/20 12:42:53;;;;;;;5.50;5.15;;;;;;;;;;4955291;29;20051;-86
2023/01/20 12:45:23;;;;;;;2.72;2.53;;;;;;;;;;4937474;29;20047;-86
2023/01/20 12:47:57;;;;;;;2.95;2.75;;;;;;;;;;4937849;29;20453;-86
2023/01/20 12:50:27;;;;;;;4.03;3.78;;;;;;;;;;4938639;29;20106;-86
2023/01/20 12:53:00;;;;;;;3.63;3.42;;;;;;;;;;4938816;29;20060;-87
2023/01/20 12:55:37;;;;;;;2.13;2.03;;;;;;;;;;4956823;28;20102;-87
2023/01/20 12:58:04;;;;;;;;;;;;;;;;;;4956549;28;20102;-87
2023/01/20 13:00:48;;;;;;;2.30;2.17;;;;;;;;;;4956189;28;19923;-86
2023/01/20 13:03:38;;;;;;;3.47;2.65;;;;;;;;;;4956643;28;20051;-86
2023/01/20 13:06:18;;;;;;;3.88;3.58;;;;;;;;;;4946209;29;20102;-89
2023/01/20 13:08:50;;;;;;;2.03;1.92;;;;;;;;;;4956809;28;20421;-86
2023/01/20 13:11:21;;;;;;;3.28;3.08;;;;;;;;;;4956039;28;20055;-86
2023/01/20 13:13:59;;;;;;;5.40;5.00;;;;;;;;;;4954457;28;20043;-87
2023/01/20 13:16:31;;;;;;;4.05;3.65;;;;;;;;;;4936716;29;20052;-86
2023/01/20 13:19:02;;;;;;;3.25;3.05;;;;;;;;;;4946005;29;20074;-87
2023/01/20 13:21:30;;;;;;;5.22;4.82;;;;;;;;;;4956342;28;20054;-87
2023/01/20 13:23:58;;;;;;;2.75;2.55;;;;;;;;;;4956157;28;20054;-87
2023/01/20 13:26:27;;;;;;;3.70;3.42;;;;;;;;;;4956244;28;20047;-87
2023/01/20 13:28:54;;;;;;;2.00;1.90;;;;;;;;;;4956194;28;20397;-87
2023/01/20 13:31:43;;;;;;;5.25;4.95;;;;;;;;;;4955336;28;20457;-87
2023/01/20 13:34:29;;;;;;;4.32;4.03;;;;;;;;;;4955305;29;20142;-85
2023/01/20 13:37:14;;;;;;;4.57;4.28;;;;;;;;;;4957118;28;20435;-86
2023/01/20 13:39:41;;;;;;;4.13;3.92;;;;;;;;;;4955152;28;20051;-87
2023/01/20 13:42:23;;;;;;;3.72;3.17;;;;;;;;;;4937173;29;20056;-87
2023/01/20 13:45:09;;;;;;;4.55;4.32;;;;;;;;;;4949674;29;20051;-88
2023/01/20 13:47:50;;;;;;;3.75;3.45;;;;;;;;;;4936988;29;20055;-87
2023/01/20 13:50:21;;;;;;;4.15;3.40;;;;;;;;;;4953913;29;20051;-88
2023/01/20 13:53:05;;;;;;;3.88;3.67;;;;;;;;;;4955614;28;20110;-87
2023/01/20 13:55:49;;;;;;;3.80;3.55;;;;;;;;;;4955896;28;20055;-87
2023/01/20 13:58:16;;;;;;;3.83;3.35;;;;;;;;;;4955710;28;20055;-87
2023/01/20 14:00:44;;;;;;;2.45;2.35;;;;;;;;;;4937252;29;20056;-87
2023/01/20 14:03:12;;;;;;;2.67;2.58;;;;;;;;;;4936895;29;20055;-87
2023/01/20 14:05:39;;;;;;;2.42;2.33;;;;;;;;;;4936891;29;20056;-87
2023/01/20 14:08:13;;;;;;;4.13;3.92;;;;;;;;;;4943062;29;20051;-88
2023/01/20 14:10:41;;;;;;;2.60;2.35;;;;;;;;;;4955696;29;20389;-86
2023/01/20 14:13:08;;;;;;;3.13;2.88;;;;;;;;;;4955182;28;20055;-87
2023/01/20 14:15:36;;;;;;;3.47;3.28;;;;;;;;;;4953547;28;20043;-88
2023/01/20 14:18:04;;;;;;;1.85;1.75;;;;;;;;;;4955535;28;20115;-86
2023/01/20 14:20:31;;;;;;;2.58;2.38;;;;;;;;;;4955489;28;20102;-87
2023/01/20 14:23:16;;;;;;;3.78;3.58;;;;;;;;;;4955061;28;20051;-87
2023/01/20 14:25:42;;;;;;;3.20;2.95;;;;;;;;;;4955189;28;20050;-87
2023/01/20 14:28:18;;;;;;;3.38;3.15;;;;;;;;;;4936353;29;20051;-87
2023/01/20 14:30:44;;;;;;;4.28;3.92;;;;;;;;;;4936050;29;20111;-86
2023/01/20 14:33:14;;;;;;;5.47;3.33;;;;;;;;;;4934843;29;20055;-86
2023/01/20 14:35:40;;;;;;;3.35;3.13;;;;;;;;;;4935798;29;20056;-86
2023/01/20 14:38:15;;;;;;;3.33;3.13;;;;;;;;;;4942454;29;20094;-87
2023/01/20 14:40:42;;;;;;;2.15;2.05;;;;;;;;;;4957558;28;20106;-87
2023/01/20 14:43:15;;;;;;;2.65;2.53;;;;;;;;;;4959197;28;20043;-88
2023/01/20 14:45:43;;;;;;;2.45;2.35;;;;;;;;;;4959423;28;20070;-88
2023/01/20 14:48:10;;;;;;;2.38;2.28;;;;;;;;;;4958725;28;20079;-87
2023/01/20 14:50:39;;;;;;;1.95;1.85;;;;;;;;;;4959073;28;20126;-88
2023/01/20 14:53:05;;;;;;;2.05;1.95;;;;;;;;;;4960122;29;20490;-87
2023/01/20 14:55:34;;;;;;;2.45;2.35;;;;;;;;;;4959881;29;20102;-87
2023/01/20 14:58:01;;;;;;;3.25;2.95;;;;;;;;;;4959552;28;20146;-87
2023/01/20 15:00:28;;;;;;;2.17;1.98;;;;;;;;;;4959062;28;20055;-89
2023/01/20 15:02:56;;;;;;;3.13;2.92;;;;;;;;;;4958739;28;20066;-87
2023/01/20 15:05:28;;;;;;;1.98;1.88;;;;;;;;;;4959606;28;20110;-88